createdAt,value
2019-05-16T00:00:02.209Z,32.25
2019-05-16T00:00:35.941Z,32.30
2019-05-16T00:01:09.508Z,32.47
2019-05-16T00:01:42.603Z,32.00
2019-05-16T00:02:15.675Z,32.40
2019-05-16T00:02:48.847Z,32.25
2019-05-16T00:03:21.725Z,32.30
2019-05-16T00:03:54.685Z,32.05
2019-05-16T00:04:28.398Z,31.93
2019-05-16T00:05:01.685Z,32.28
2019-05-16T00:05:46.817Z,32.65
2019-05-16T00:06:09.742Z,32.40
2019-05-16T00:06:42.636Z,32.03
2019-05-16T00:07:15.635Z,32.13
2019-05-16T00:07:49.866Z,32.10
2019-05-16T00:08:22.918Z,32.40
2019-05-16T00:08:55.715Z,31.97
2019-05-16T00:09:28.854Z,32.20
2019-05-16T00:10:01.869Z,32.30
2019-05-16T00:10:35.085Z,32.15
2019-05-16T00:11:08.619Z,32.17
2019-05-16T00:11:41.833Z,32.30
2019-05-16T00:12:14.848Z,32.78
2019-05-16T00:12:48.585Z,32.42
2019-05-16T00:13:21.800Z,32.20
2019-05-16T00:13:57.813Z,32.35
2019-05-16T00:14:30.609Z,32.08
2019-05-16T00:15:04.077Z,32.45
2019-05-16T00:15:37.988Z,32.13
2019-05-16T00:16:10.951Z,32.55
2019-05-16T00:16:43.771Z,32.25
2019-05-16T00:17:18.873Z,32.60
2019-05-16T00:17:51.871Z,32.23
2019-05-16T00:18:24.969Z,31.65
2019-05-16T00:18:58.320Z,32.40
2019-05-16T00:19:31.425Z,32.23
2019-05-16T00:20:04.687Z,32.30
2019-05-16T00:20:38.635Z,32.15
2019-05-16T00:21:11.791Z,32.55
2019-05-16T00:21:44.693Z,32.17
2019-05-16T00:22:18.219Z,32.08
2019-05-16T00:22:51.309Z,32.48
2019-05-16T00:23:24.201Z,31.90
2019-05-16T00:23:58.686Z,32.35
2019-05-16T00:24:31.673Z,32.38
2019-05-16T00:25:08.487Z,32.50
2019-05-16T00:25:41.240Z,32.42
2019-05-16T00:26:14.381Z,32.28
2019-05-16T00:26:47.960Z,32.80
2019-05-16T00:27:21.207Z,32.33
2019-05-16T00:27:54.139Z,32.15
2019-05-16T00:28:28.586Z,32.20
2019-05-16T00:29:01.792Z,31.97
2019-05-16T00:29:34.845Z,32.33
2019-05-16T00:30:08.850Z,31.75
2019-05-16T00:30:42.291Z,32.00
2019-05-16T00:31:15.296Z,32.70
2019-05-16T00:31:48.684Z,32.83
2019-05-16T00:32:22.767Z,31.55
2019-05-16T00:32:55.905Z,32.23
2019-05-16T00:33:28.992Z,31.95
2019-05-16T00:34:02.128Z,31.62
2019-05-16T00:34:35.130Z,32.20
2019-05-16T00:35:09.284Z,32.03
2019-05-16T00:35:42.607Z,32.00
2019-05-16T00:36:15.459Z,32.20
2019-05-16T00:36:48.797Z,31.70
2019-05-16T00:37:23.097Z,32.17
2019-05-16T00:37:58.739Z,31.82
2019-05-16T00:38:31.232Z,32.10
2019-05-16T00:39:04.982Z,31.57
2019-05-16T00:39:38.816Z,31.65
2019-05-16T00:40:12.245Z,32.05
2019-05-16T00:40:45.155Z,31.62
2019-05-16T00:41:18.221Z,32.20
2019-05-16T00:41:51.185Z,32.20
2019-05-16T00:42:24.083Z,32.15
2019-05-16T00:42:58.973Z,31.97
2019-05-16T00:43:31.943Z,31.65
2019-05-16T00:44:08.429Z,31.85
2019-05-16T00:44:41.331Z,31.62
2019-05-16T00:45:14.504Z,31.40
2019-05-16T00:45:48.649Z,31.90
2019-05-16T00:46:21.650Z,31.73
2019-05-16T00:46:54.553Z,31.42
2019-05-16T00:47:28.408Z,32.17
2019-05-16T00:48:01.566Z,31.90
2019-05-16T00:48:38.016Z,31.50
2019-05-16T00:49:10.687Z,32.05
2019-05-16T00:49:43.747Z,31.30
2019-05-16T00:50:18.340Z,31.40
2019-05-16T00:50:51.707Z,31.50
2019-05-16T00:51:24.737Z,31.95
2019-05-16T00:51:58.469Z,31.93
2019-05-16T00:52:31.541Z,31.68
2019-05-16T00:53:04.794Z,31.70
2019-05-16T00:53:38.218Z,31.82
2019-05-16T00:54:11.440Z,31.57
2019-05-16T00:54:44.347Z,31.33
2019-05-16T00:55:18.012Z,31.82
2019-05-16T00:55:51.292Z,31.68
2019-05-16T00:56:25.356Z,31.77
2019-05-16T00:56:59.160Z,32.05
2019-05-16T00:57:33.511Z,31.87
2019-05-16T00:58:08.829Z,32.00
2019-05-16T00:58:42.072Z,31.50
2019-05-16T00:59:15.540Z,31.60
2019-05-16T00:59:49.054Z,31.97
2019-05-16T01:00:49.337Z,31.27
2019-05-16T01:01:21.352Z,31.87
2019-05-16T01:01:54.222Z,31.50
2019-05-16T01:02:28.831Z,31.42
2019-05-16T01:03:03.396Z,31.95
2019-05-16T01:03:37.789Z,31.73
2019-05-16T01:04:10.799Z,31.57
2019-05-16T01:04:43.606Z,31.73
2019-05-16T01:05:18.935Z,31.30
2019-05-16T01:05:51.590Z,31.57
2019-05-16T01:06:24.635Z,31.60
2019-05-16T01:06:58.978Z,31.23
2019-05-16T01:07:32.557Z,31.60
2019-05-16T01:08:07.894Z,31.50
2019-05-16T01:08:40.922Z,31.52
2019-05-16T01:09:14.031Z,31.62
2019-05-16T01:09:48.808Z,31.68
2019-05-16T01:10:22.695Z,31.23
2019-05-16T01:10:55.797Z,31.52
2019-05-16T01:11:28.736Z,31.30
2019-05-16T01:12:02.013Z,31.33
2019-05-16T01:12:35.022Z,31.27
2019-05-16T01:13:08.226Z,31.68
2019-05-16T01:13:41.245Z,31.70
2019-05-16T01:14:14.267Z,31.25
2019-05-16T01:14:47.823Z,31.50
2019-05-16T01:15:21.013Z,31.50
2019-05-16T01:15:53.903Z,31.48
2019-05-16T01:16:27.664Z,30.95
2019-05-16T01:17:00.599Z,31.48
2019-05-16T01:17:33.603Z,31.55
2019-05-16T01:18:08.103Z,31.52
2019-05-16T01:18:42.241Z,30.15
2019-05-16T01:19:15.260Z,31.50
2019-05-16T01:19:48.509Z,30.92
2019-05-16T01:20:21.691Z,31.50
2019-05-16T01:20:54.685Z,31.50
2019-05-16T01:21:28.708Z,31.48
2019-05-16T01:22:02.133Z,31.57
2019-05-16T01:22:35.017Z,31.57
2019-05-16T01:23:08.928Z,31.35
2019-05-16T01:23:42.180Z,31.60
2019-05-16T01:24:15.228Z,31.37
2019-05-16T01:24:49.208Z,31.17
2019-05-16T01:25:22.439Z,31.25
2019-05-16T01:25:55.588Z,31.33
2019-05-16T01:26:28.701Z,31.52
2019-05-16T01:27:01.561Z,31.23
2019-05-16T01:27:34.497Z,31.55
2019-05-16T01:28:08.834Z,31.05
2019-05-16T01:28:42.286Z,30.85
2019-05-16T01:29:15.382Z,31.50
2019-05-16T01:29:48.437Z,31.37
2019-05-16T01:30:21.461Z,31.48
2019-05-16T01:30:54.677Z,31.10
2019-05-16T01:31:28.029Z,30.72
2019-05-16T01:32:01.402Z,30.72
2019-05-16T01:32:34.295Z,31.60
2019-05-16T01:33:08.847Z,30.88
2019-05-16T01:33:43.272Z,31.27
2019-05-16T01:34:18.114Z,31.40
2019-05-16T01:34:51.090Z,31.07
2019-05-16T01:35:24.039Z,31.25
2019-05-16T01:35:58.498Z,31.40
2019-05-16T01:36:37.001Z,31.45
2019-05-16T01:37:08.295Z,31.20
2019-05-16T01:37:41.393Z,30.85
2019-05-16T01:38:14.416Z,31.12
2019-05-16T01:38:48.062Z,31.33
2019-05-16T01:39:22.309Z,31.40
2019-05-16T01:39:55.352Z,31.55
2019-05-16T01:40:28.250Z,30.88
2019-05-16T01:41:01.246Z,31.52
2019-05-16T01:41:34.233Z,31.37
2019-05-16T01:42:07.976Z,31.50
2019-05-16T01:42:41.189Z,31.45
2019-05-16T01:43:14.241Z,31.25
2019-05-16T01:43:48.339Z,31.30
2019-05-16T01:44:21.505Z,31.80
2019-05-16T01:44:54.408Z,31.30
2019-05-16T01:45:28.191Z,31.10
2019-05-16T01:46:01.085Z,31.35
2019-05-16T01:46:34.457Z,31.37
2019-05-16T01:47:09.023Z,31.77
2019-05-16T01:47:42.144Z,31.05
2019-05-16T01:48:15.164Z,31.50
2019-05-16T01:48:48.625Z,31.40
2019-05-16T01:49:21.695Z,31.33
2019-05-16T01:49:54.720Z,31.30
2019-05-16T01:50:28.365Z,31.55
2019-05-16T01:51:01.594Z,31.35
2019-05-16T01:51:37.966Z,31.52
2019-05-16T01:52:11.130Z,31.40
2019-05-16T01:52:44.199Z,31.90
2019-05-16T01:53:17.935Z,31.50
2019-05-16T01:53:51.131Z,31.35
2019-05-16T01:54:24.071Z,31.80
2019-05-16T01:54:58.725Z,32.28
2019-05-16T01:55:31.772Z,31.40
2019-05-16T01:56:05.075Z,31.90
2019-05-16T01:56:38.780Z,31.65
2019-05-16T01:57:12.518Z,31.48
2019-05-16T01:57:45.495Z,31.25
2019-05-16T01:58:21.231Z,31.60
2019-05-16T01:58:54.272Z,31.65
2019-05-16T01:59:28.415Z,31.35
2019-05-16T02:00:01.642Z,31.75
2019-05-16T02:00:38.107Z,31.87
2019-05-16T02:01:13.311Z,32.00
2019-05-16T02:01:44.849Z,32.15
2019-05-16T02:02:18.415Z,31.70
2019-05-16T02:02:51.761Z,31.80
2019-05-16T02:03:24.918Z,32.05
2019-05-16T02:03:58.700Z,31.85
2019-05-16T02:04:31.681Z,31.73
2019-05-16T02:05:04.994Z,31.77
2019-05-16T02:05:38.765Z,31.87
2019-05-16T02:06:12.132Z,32.00
2019-05-16T02:06:51.706Z,32.03
2019-05-16T02:07:20.136Z,31.85
2019-05-16T02:07:53.220Z,32.10
2019-05-16T02:08:28.702Z,31.70
2019-05-16T02:09:02.033Z,32.17
2019-05-16T02:09:40.941Z,31.77
2019-05-16T02:10:17.904Z,31.80
2019-05-16T02:10:50.464Z,32.03
2019-05-16T02:11:23.437Z,31.57
2019-05-16T02:11:58.754Z,31.40
2019-05-16T02:12:31.241Z,31.55
2019-05-16T02:13:04.376Z,31.48
2019-05-16T02:13:39.057Z,31.85
2019-05-16T02:14:12.312Z,31.48
2019-05-16T02:14:45.282Z,31.62
2019-05-16T02:15:18.446Z,31.95
2019-05-16T02:15:52.621Z,31.85
2019-05-16T02:16:27.791Z,31.40
2019-05-16T02:17:00.468Z,31.30
2019-05-16T02:17:33.591Z,32.08
2019-05-16T02:18:08.272Z,31.52
2019-05-16T02:18:41.533Z,31.30
2019-05-16T02:19:14.553Z,31.70
2019-05-16T02:19:48.526Z,31.77
2019-05-16T02:20:24.620Z,31.90
2019-05-16T02:21:01.422Z,31.50
2019-05-16T02:21:34.072Z,31.87
2019-05-16T02:22:08.937Z,31.45
2019-05-16T02:22:41.816Z,31.48
2019-05-16T02:23:14.861Z,31.87
2019-05-16T02:23:51.339Z,31.97
2019-05-16T02:24:24.240Z,31.30
2019-05-16T02:24:58.514Z,31.82
2019-05-16T02:25:31.783Z,31.70
2019-05-16T02:26:04.872Z,31.85
2019-05-16T02:26:38.648Z,31.50
2019-05-16T02:27:11.701Z,31.80
2019-05-16T02:27:44.736Z,31.33
2019-05-16T02:28:21.084Z,31.82
2019-05-16T02:28:52.724Z,31.87
2019-05-16T02:29:25.749Z,31.95
2019-05-16T02:30:00.007Z,31.87
2019-05-16T02:30:33.335Z,31.90
2019-05-16T02:31:06.734Z,31.62
2019-05-16T02:31:42.197Z,32.03
2019-05-16T02:32:14.680Z,31.42
2019-05-16T02:32:47.559Z,31.77
2019-05-16T02:33:21.566Z,31.37
2019-05-16T02:33:54.860Z,31.25
2019-05-16T02:34:30.630Z,31.75
2019-05-16T02:35:03.523Z,31.70
2019-05-16T02:35:36.590Z,31.93
2019-05-16T02:36:11.003Z,31.70
2019-05-16T02:36:44.208Z,31.33
2019-05-16T02:37:25.923Z,32.23
2019-05-16T02:37:55.188Z,32.03
2019-05-16T02:38:26.959Z,32.25
2019-05-16T02:39:01.982Z,31.65
2019-05-16T02:39:36.595Z,31.62
2019-05-16T02:40:11.903Z,31.85
2019-05-16T02:40:45.192Z,31.77
2019-05-16T02:41:21.305Z,31.45
2019-05-16T02:41:53.220Z,31.55
2019-05-16T02:42:30.696Z,32.03
2019-05-16T02:43:02.350Z,31.85
2019-05-16T02:43:36.878Z,31.62
2019-05-16T02:44:12.097Z,31.37
2019-05-16T02:44:44.877Z,31.40
2019-05-16T02:45:23.897Z,32.00
2019-05-16T02:45:53.120Z,31.65
2019-05-16T02:46:26.076Z,31.15
2019-05-16T02:47:01.530Z,31.20
2019-05-16T02:47:35.168Z,31.75
2019-05-16T02:48:10.985Z,31.68
2019-05-16T02:48:43.306Z,31.73
2019-05-16T02:49:16.288Z,31.57
2019-05-16T02:49:50.522Z,31.80
2019-05-16T02:50:23.945Z,31.85
2019-05-16T02:50:56.964Z,31.42
2019-05-16T02:51:31.488Z,31.68
2019-05-16T02:52:04.886Z,31.65
2019-05-16T02:52:41.013Z,31.62
2019-05-16T02:53:13.003Z,31.60
2019-05-16T02:53:46.144Z,31.60
2019-05-16T02:54:21.857Z,31.50
2019-05-16T02:54:54.068Z,31.35
2019-05-16T02:55:27.073Z,31.52
2019-05-16T02:56:01.590Z,32.25
2019-05-16T02:56:34.843Z,31.60
2019-05-16T02:57:10.882Z,32.13
2019-05-16T02:57:43.114Z,31.30
2019-05-16T02:58:16.076Z,31.57
2019-05-16T02:58:52.050Z,31.60
2019-05-16T02:59:24.039Z,31.50
2019-05-16T02:59:57.237Z,31.87
2019-05-16T03:00:42.042Z,31.42
2019-05-16T03:01:13.562Z,31.48
2019-05-16T03:01:47.170Z,31.20
2019-05-16T03:02:20.730Z,31.50
2019-05-16T03:02:53.835Z,31.33
2019-05-16T03:03:26.904Z,31.50
2019-05-16T03:04:01.699Z,31.10
2019-05-16T03:04:34.887Z,31.20
2019-05-16T03:05:11.544Z,31.10
2019-05-16T03:05:44.198Z,31.48
2019-05-16T03:06:20.919Z,31.57
2019-05-16T03:06:53.646Z,31.33
2019-05-16T03:07:37.856Z,31.52
2019-05-16T03:08:03.012Z,31.77
2019-05-16T03:08:37.142Z,31.40
2019-05-16T03:09:11.505Z,31.42
2019-05-16T03:09:45.352Z,31.37
2019-05-16T03:10:20.323Z,31.17
2019-05-16T03:10:54.383Z,31.23
2019-05-16T03:11:27.658Z,31.35
2019-05-16T03:12:01.774Z,31.80
2019-05-16T03:12:37.510Z,31.65
2019-05-16T03:13:11.290Z,31.90
2019-05-16T03:13:46.894Z,31.37
2019-05-16T03:14:21.209Z,31.40
2019-05-16T03:14:57.042Z,31.48
2019-05-16T03:15:31.640Z,31.62
2019-05-16T03:16:11.715Z,31.57
2019-05-16T03:16:45.720Z,31.70
2019-05-16T03:17:22.027Z,31.70
2019-05-16T03:18:00.307Z,31.27
2019-05-16T03:18:33.924Z,31.60
2019-05-16T03:19:11.153Z,31.60
2019-05-16T03:19:43.414Z,31.30
2019-05-16T03:20:16.460Z,31.30
2019-05-16T03:20:51.227Z,31.60
2019-05-16T03:21:25.059Z,31.12
2019-05-16T03:22:01.219Z,31.27
2019-05-16T03:22:35.530Z,31.60
2019-05-16T03:23:11.262Z,31.37
2019-05-16T03:23:43.394Z,31.77
2019-05-16T03:24:16.314Z,31.40
2019-05-16T03:24:51.554Z,31.12
2019-05-16T03:25:24.522Z,31.42
2019-05-16T03:25:57.560Z,31.12
2019-05-16T03:26:31.424Z,31.68
2019-05-16T03:27:04.757Z,31.90
2019-05-16T03:27:41.009Z,31.23
2019-05-16T03:28:12.859Z,31.30
2019-05-16T03:28:45.761Z,31.50
2019-05-16T03:29:21.598Z,31.25
2019-05-16T03:29:53.530Z,31.20
2019-05-16T03:30:26.513Z,31.30
2019-05-16T03:31:05.132Z,31.37
2019-05-16T03:31:34.701Z,31.20
2019-05-16T03:32:13.268Z,31.35
2019-05-16T03:32:45.264Z,30.95
2019-05-16T03:33:26.309Z,31.20
2019-05-16T03:33:59.297Z,31.80
2019-05-16T03:34:33.819Z,30.75
2019-05-16T03:35:05.951Z,31.40
2019-05-16T03:35:43.954Z,31.25
2019-05-16T03:36:15.992Z,31.70
2019-05-16T03:36:54.306Z,31.10
2019-05-16T03:37:25.184Z,31.45
2019-05-16T03:38:04.211Z,31.50
2019-05-16T03:38:34.508Z,31.50
2019-05-16T03:39:10.723Z,31.45
2019-05-16T03:39:43.930Z,31.48
2019-05-16T03:40:24.716Z,31.12
2019-05-16T03:41:00.789Z,30.88
2019-05-16T03:41:32.470Z,30.60
2019-05-16T03:42:05.503Z,31.25
2019-05-16T03:42:41.349Z,31.15
2019-05-16T03:43:13.690Z,31.20
2019-05-16T03:43:50.680Z,31.20
2019-05-16T03:44:23.399Z,31.45
2019-05-16T03:44:56.192Z,31.35
2019-05-16T03:45:31.976Z,30.85
2019-05-16T03:46:04.038Z,30.92
2019-05-16T03:46:41.066Z,31.15
2019-05-16T03:47:12.891Z,31.30
2019-05-16T03:47:45.940Z,31.30
2019-05-16T03:48:21.404Z,30.90
2019-05-16T03:48:53.878Z,30.90
2019-05-16T03:49:26.760Z,30.97
2019-05-16T03:50:00.577Z,31.17
2019-05-16T03:50:33.833Z,31.10
2019-05-16T03:51:06.771Z,31.00
2019-05-16T03:51:41.402Z,30.68
2019-05-16T03:52:15.702Z,30.80
2019-05-16T03:52:50.885Z,30.82
2019-05-16T03:53:23.549Z,31.00
2019-05-16T03:53:57.526Z,30.80
2019-05-16T03:54:31.443Z,31.17
2019-05-16T03:55:05.203Z,31.10
2019-05-16T03:55:40.734Z,31.12
2019-05-16T03:56:14.654Z,30.60
2019-05-16T03:56:47.632Z,30.27
2019-05-16T03:57:21.241Z,30.23
2019-05-16T03:57:54.407Z,30.40
2019-05-16T03:58:30.779Z,30.35
2019-05-16T03:59:03.260Z,30.65
2019-05-16T03:59:36.155Z,30.48
2019-05-16T04:00:11.856Z,30.60
2019-05-16T04:00:54.374Z,30.35
2019-05-16T04:01:27.595Z,30.75
2019-05-16T04:02:01.454Z,30.37
2019-05-16T04:02:34.806Z,30.00
2019-05-16T04:03:07.768Z,30.20
2019-05-16T04:03:41.585Z,30.68
2019-05-16T04:04:15.030Z,30.23
2019-05-16T04:04:50.881Z,30.10
2019-05-16T04:05:23.134Z,30.48
2019-05-16T04:05:56.721Z,30.10
2019-05-16T04:06:31.162Z,30.32
2019-05-16T04:07:04.613Z,30.35
2019-05-16T04:07:41.407Z,30.05
2019-05-16T04:08:20.823Z,30.68
2019-05-16T04:08:51.188Z,30.27
2019-05-16T04:09:24.551Z,30.60
2019-05-16T04:09:57.606Z,30.48
2019-05-16T04:10:31.090Z,30.50
2019-05-16T04:11:04.264Z,30.40
2019-05-16T04:11:37.252Z,30.62
2019-05-16T04:12:10.907Z,30.48
2019-05-16T04:12:43.948Z,30.43
2019-05-16T04:13:16.976Z,30.10
2019-05-16T04:13:50.846Z,30.70
2019-05-16T04:14:23.978Z,30.10
2019-05-16T04:14:57.278Z,30.57
2019-05-16T04:15:31.394Z,30.48
2019-05-16T04:16:04.411Z,30.68
2019-05-16T04:16:37.575Z,30.70
2019-05-16T04:17:11.063Z,30.50
2019-05-16T04:17:44.105Z,30.57
2019-05-16T04:18:17.092Z,30.15
2019-05-16T04:18:51.471Z,30.17
2019-05-16T04:19:24.621Z,30.82
2019-05-16T04:19:57.566Z,30.55
2019-05-16T04:20:30.614Z,30.70
2019-05-16T04:21:03.672Z,30.37
2019-05-16T04:21:36.573Z,30.65
2019-05-16T04:22:14.307Z,30.27
2019-05-16T04:22:47.209Z,30.17
2019-05-16T04:23:20.668Z,30.20
2019-05-16T04:23:54.078Z,30.32
2019-05-16T04:24:31.430Z,30.77
2019-05-16T04:25:04.458Z,30.60
2019-05-16T04:25:40.779Z,30.60
2019-05-16T04:26:12.237Z,30.70
2019-05-16T04:26:45.351Z,30.20
2019-05-16T04:27:21.213Z,29.95
2019-05-16T04:27:53.160Z,30.75
2019-05-16T04:28:25.961Z,30.30
2019-05-16T04:29:00.849Z,30.60
2019-05-16T04:29:33.724Z,30.50
2019-05-16T04:30:06.978Z,30.23
2019-05-16T04:30:41.518Z,30.40
2019-05-16T04:31:14.804Z,30.48
2019-05-16T04:31:50.698Z,30.72
2019-05-16T04:32:22.517Z,30.40
2019-05-16T04:32:55.522Z,30.17
2019-05-16T04:33:30.948Z,30.20
2019-05-16T04:34:03.780Z,30.30
2019-05-16T04:34:37.478Z,30.55
2019-05-16T04:35:11.273Z,30.30
2019-05-16T04:35:45.165Z,30.32
2019-05-16T04:36:21.084Z,30.23
2019-05-16T04:36:54.586Z,30.20
2019-05-16T04:37:31.151Z,30.48
2019-05-16T04:38:02.513Z,30.12
2019-05-16T04:38:41.285Z,30.80
2019-05-16T04:39:11.905Z,30.55
2019-05-16T04:39:45.119Z,30.52
2019-05-16T04:40:21.632Z,30.90
2019-05-16T04:40:53.194Z,30.70
2019-05-16T04:41:27.134Z,30.80
2019-05-16T04:42:01.537Z,30.17
2019-05-16T04:42:34.853Z,30.40
2019-05-16T04:43:07.691Z,30.35
2019-05-16T04:43:41.592Z,30.20
2019-05-16T04:44:14.977Z,30.35
2019-05-16T04:44:51.282Z,30.17
2019-05-16T04:45:22.925Z,29.87
2019-05-16T04:45:56.018Z,30.05
2019-05-16T04:46:31.388Z,30.50
2019-05-16T04:47:04.097Z,30.08
2019-05-16T04:47:37.064Z,30.20
2019-05-16T04:48:11.254Z,30.20
2019-05-16T04:48:44.485Z,30.57
2019-05-16T04:49:17.504Z,30.40
2019-05-16T04:49:51.952Z,30.82
2019-05-16T04:50:25.240Z,30.05
2019-05-16T04:51:01.040Z,30.20
2019-05-16T04:51:33.216Z,30.05
2019-05-16T04:52:06.160Z,30.88
2019-05-16T04:52:41.862Z,30.10
2019-05-16T04:53:14.152Z,30.20
2019-05-16T04:53:47.059Z,30.30
2019-05-16T04:54:21.562Z,30.27
2019-05-16T04:54:54.662Z,30.30
2019-05-16T04:55:27.704Z,30.12
2019-05-16T04:56:01.755Z,30.40
2019-05-16T04:56:35.167Z,30.08
2019-05-16T04:57:11.561Z,30.27
2019-05-16T04:57:42.946Z,30.20
2019-05-16T04:58:15.912Z,30.23
2019-05-16T04:58:51.418Z,30.40
2019-05-16T04:59:23.892Z,30.27
2019-05-16T04:59:56.887Z,30.68
2019-05-16T05:00:32.067Z,30.40
2019-05-16T05:01:05.156Z,30.60
2019-05-16T05:01:41.056Z,30.23
2019-05-16T05:02:13.427Z,30.62
2019-05-16T05:02:46.505Z,30.72
2019-05-16T05:03:21.229Z,30.80
2019-05-16T05:04:07.940Z,30.77
2019-05-16T05:04:30.639Z,30.10
2019-05-16T05:05:04.277Z,30.50
2019-05-16T05:05:37.243Z,30.00
2019-05-16T05:06:11.346Z,30.30
2019-05-16T05:06:44.566Z,30.20
2019-05-16T05:07:20.777Z,30.25
2019-05-16T05:07:53.724Z,30.27
2019-05-16T05:08:26.823Z,30.30
2019-05-16T05:09:03.229Z,30.30
2019-05-16T05:09:34.944Z,30.15
2019-05-16T05:10:11.307Z,30.25
2019-05-16T05:10:43.683Z,29.82
2019-05-16T05:11:16.747Z,30.25
2019-05-16T05:11:52.037Z,30.08
2019-05-16T05:12:24.859Z,29.92
2019-05-16T05:12:57.829Z,30.00
2019-05-16T05:13:30.957Z,29.98
2019-05-16T05:14:04.161Z,30.23
2019-05-16T05:14:37.195Z,29.98
2019-05-16T05:15:11.731Z,29.95
2019-05-16T05:15:44.897Z,29.82
2019-05-16T05:16:20.330Z,29.85
2019-05-16T05:16:53.081Z,29.92
2019-05-16T05:17:26.021Z,29.70
2019-05-16T05:18:00.650Z,29.57
2019-05-16T05:18:33.882Z,30.00
2019-05-16T05:19:06.923Z,29.63
2019-05-16T05:19:41.457Z,29.80
2019-05-16T05:20:15.282Z,29.72
2019-05-16T05:20:48.374Z,29.90
2019-05-16T05:21:21.346Z,29.72
2019-05-16T05:21:54.408Z,29.75
2019-05-16T05:22:27.370Z,30.50
2019-05-16T05:23:00.524Z,29.95
2019-05-16T05:23:33.627Z,29.67
2019-05-16T05:24:06.632Z,29.77
2019-05-16T05:24:40.625Z,29.87
2019-05-16T05:25:14.258Z,29.82
2019-05-16T05:25:47.243Z,29.67
2019-05-16T05:26:20.427Z,29.92
2019-05-16T05:26:53.411Z,29.55
2019-05-16T05:27:26.272Z,30.17
2019-05-16T05:28:00.533Z,29.70
2019-05-16T05:28:34.704Z,30.08
2019-05-16T05:29:07.600Z,29.87
2019-05-16T05:29:40.547Z,30.12
2019-05-16T05:30:13.893Z,29.55
2019-05-16T05:30:46.878Z,29.52
2019-05-16T05:31:24.780Z,29.60
2019-05-16T05:31:55.843Z,30.00
2019-05-16T05:32:30.557Z,29.60
2019-05-16T05:33:03.786Z,29.92
2019-05-16T05:33:36.752Z,29.85
2019-05-16T05:34:10.587Z,29.57
2019-05-16T05:34:43.853Z,29.90
2019-05-16T05:35:17.150Z,29.85
2019-05-16T05:35:50.930Z,30.08
2019-05-16T05:36:24.160Z,29.48
2019-05-16T05:37:00.266Z,29.20
2019-05-16T05:37:43.967Z,29.65
2019-05-16T05:38:20.842Z,29.40
2019-05-16T05:39:07.950Z,29.82
2019-05-16T05:39:30.158Z,29.90
2019-05-16T05:40:05.700Z,30.00
2019-05-16T05:40:40.448Z,29.77
2019-05-16T05:41:13.611Z,29.50
2019-05-16T05:41:46.731Z,30.55
2019-05-16T05:42:20.036Z,30.12
2019-05-16T05:42:53.237Z,29.85
2019-05-16T05:43:26.283Z,29.60
2019-05-16T05:43:59.826Z,29.42
2019-05-16T05:44:33.177Z,30.23
2019-05-16T05:45:06.353Z,29.80
2019-05-16T05:45:40.144Z,29.65
2019-05-16T05:46:13.239Z,29.75
2019-05-16T05:46:46.073Z,29.40
2019-05-16T05:47:19.974Z,29.37
2019-05-16T05:47:53.413Z,29.60
2019-05-16T05:48:26.430Z,29.42
2019-05-16T05:48:59.826Z,29.40
2019-05-16T05:49:33.019Z,29.30
2019-05-16T05:50:07.581Z,29.80
2019-05-16T05:50:40.606Z,29.32
2019-05-16T05:51:13.568Z,29.65
2019-05-16T05:51:46.782Z,29.55
2019-05-16T05:52:20.761Z,29.52
2019-05-16T05:52:53.952Z,29.57
2019-05-16T05:53:26.951Z,29.23
2019-05-16T05:54:00.225Z,29.57
2019-05-16T05:54:33.519Z,30.02
2019-05-16T05:55:06.843Z,29.50
2019-05-16T05:55:40.490Z,29.32
2019-05-16T05:56:13.735Z,29.60
2019-05-16T05:56:50.089Z,29.40
2019-05-16T05:57:23.329Z,29.20
2019-05-16T05:57:56.532Z,29.60
2019-05-16T05:58:31.065Z,29.60
2019-05-16T05:59:04.253Z,29.65
2019-05-16T05:59:37.355Z,29.80
2019-05-16T06:00:10.718Z,29.90
2019-05-16T06:00:43.854Z,29.48
2019-05-16T06:01:16.903Z,29.10
2019-05-16T06:01:51.636Z,29.57
2019-05-16T06:02:24.836Z,29.60
2019-05-16T06:02:59.977Z,29.50
2019-05-16T06:03:33.298Z,29.70
2019-05-16T06:04:06.335Z,29.48
2019-05-16T06:04:39.636Z,29.55
2019-05-16T06:05:13.521Z,29.48
2019-05-16T06:05:46.730Z,29.20
2019-05-16T06:06:21.094Z,29.02
2019-05-16T06:06:54.409Z,29.20
2019-05-16T06:07:27.191Z,29.12
2019-05-16T06:08:00.380Z,28.92
2019-05-16T06:08:33.342Z,29.57
2019-05-16T06:09:06.427Z,29.70
2019-05-16T06:09:50.512Z,29.75
2019-05-16T06:10:14.545Z,29.37
2019-05-16T06:10:50.380Z,29.63
2019-05-16T06:11:24.094Z,29.70
2019-05-16T06:11:57.194Z,29.00
2019-05-16T06:12:30.525Z,28.77
2019-05-16T06:13:03.842Z,28.87
2019-05-16T06:13:36.909Z,28.87
2019-05-16T06:14:10.042Z,28.75
2019-05-16T06:14:42.881Z,29.30
2019-05-16T06:15:20.105Z,28.87
2019-05-16T06:15:52.840Z,29.02
2019-05-16T06:16:25.783Z,28.70
2019-05-16T06:17:00.422Z,28.52
2019-05-16T06:17:33.747Z,28.42
2019-05-16T06:18:06.829Z,28.35
2019-05-16T06:18:39.890Z,28.80
2019-05-16T06:19:12.980Z,28.10
2019-05-16T06:19:45.955Z,28.77
2019-05-16T06:20:20.298Z,28.32
2019-05-16T06:20:53.554Z,27.90
2019-05-16T06:21:26.578Z,28.50
2019-05-16T06:22:01.084Z,28.20
2019-05-16T06:22:34.647Z,27.90
2019-05-16T06:23:07.587Z,28.25
2019-05-16T06:23:40.603Z,28.20
2019-05-16T06:24:16.221Z,28.35
2019-05-16T06:24:50.444Z,28.07
2019-05-16T06:25:23.567Z,28.20
2019-05-16T06:25:56.635Z,28.60
2019-05-16T06:26:30.325Z,28.20
2019-05-16T06:27:04.585Z,28.30
2019-05-16T06:27:37.656Z,28.30
2019-05-16T06:28:10.694Z,28.30
2019-05-16T06:28:43.781Z,28.10
2019-05-16T06:29:16.844Z,28.25
2019-05-16T06:29:49.910Z,28.38
2019-05-16T06:30:23.077Z,27.73
2019-05-16T06:30:56.030Z,28.32
2019-05-16T06:31:31.260Z,28.10
2019-05-16T06:32:04.373Z,28.27
2019-05-16T06:32:39.466Z,28.07
2019-05-16T06:33:12.355Z,27.87
2019-05-16T06:33:45.378Z,27.87
2019-05-16T06:34:20.767Z,28.00
2019-05-16T06:34:53.434Z,28.00
2019-05-16T06:35:26.603Z,27.85
2019-05-16T06:36:00.266Z,28.10
2019-05-16T06:36:34.550Z,28.12
2019-05-16T06:37:09.693Z,28.00
2019-05-16T06:37:42.609Z,28.40
2019-05-16T06:38:15.680Z,28.40
2019-05-16T06:38:49.789Z,27.90
2019-05-16T06:39:22.950Z,28.00
2019-05-16T06:39:56.023Z,27.55
2019-05-16T06:40:29.511Z,28.12
2019-05-16T06:41:02.748Z,28.05
2019-05-16T06:41:35.975Z,28.40
2019-05-16T06:42:09.814Z,28.45
2019-05-16T06:42:42.792Z,28.40
2019-05-16T06:43:15.933Z,28.23
2019-05-16T06:43:50.753Z,28.45
2019-05-16T06:44:23.699Z,28.30
2019-05-16T06:44:56.579Z,28.27
2019-05-16T06:45:31.977Z,27.93
2019-05-16T06:46:04.487Z,28.50
2019-05-16T06:46:52.593Z,28.20
2019-05-16T06:47:19.633Z,28.30
2019-05-16T06:47:47.116Z,28.12
2019-05-16T06:48:21.230Z,28.10
2019-05-16T06:48:54.545Z,28.23
2019-05-16T06:49:27.446Z,28.10
2019-05-16T06:50:00.529Z,28.20
2019-05-16T06:50:33.477Z,28.40
2019-05-16T06:51:06.564Z,28.10
2019-05-16T06:51:39.813Z,27.98
2019-05-16T06:52:13.298Z,28.05
2019-05-16T06:52:46.185Z,28.20
2019-05-16T06:53:20.944Z,28.25
2019-05-16T06:53:55.168Z,28.90
2019-05-16T06:54:29.853Z,27.85
2019-05-16T06:55:04.057Z,28.05
2019-05-16T06:55:37.106Z,28.25
2019-05-16T06:56:10.596Z,28.42
2019-05-16T06:56:43.786Z,28.20
2019-05-16T06:57:16.810Z,28.20
2019-05-16T06:57:50.327Z,28.60
2019-05-16T06:58:23.581Z,28.30
2019-05-16T06:58:56.529Z,28.73
2019-05-16T06:59:29.832Z,28.85
2019-05-16T07:00:05.492Z,29.30
2019-05-16T07:00:40.626Z,28.67
2019-05-16T07:01:13.643Z,27.98
2019-05-16T07:01:46.755Z,28.25
2019-05-16T07:02:30.440Z,28.35
2019-05-16T07:02:54.848Z,28.15
2019-05-16T07:03:27.886Z,27.80
2019-05-16T07:04:00.919Z,28.27
2019-05-16T07:04:33.966Z,27.90
2019-05-16T07:05:07.172Z,27.85
2019-05-16T07:05:40.609Z,28.10
2019-05-16T07:06:29.613Z,28.20
2019-05-16T07:06:58.704Z,28.27
2019-05-16T07:07:24.595Z,28.40
2019-05-16T07:08:20.500Z,28.02
2019-05-16T07:08:54.019Z,28.40
2019-05-16T07:09:26.943Z,28.23
2019-05-16T07:10:04.154Z,28.23
2019-05-16T07:10:35.015Z,28.40
2019-05-16T07:11:10.376Z,28.35
2019-05-16T07:11:43.213Z,28.12
2019-05-16T07:12:16.338Z,28.40
2019-05-16T07:12:50.432Z,27.80
2019-05-16T07:13:23.600Z,28.20
2019-05-16T07:13:56.694Z,28.12
2019-05-16T07:14:31.383Z,28.00
2019-05-16T07:15:06.691Z,27.80
2019-05-16T07:15:40.174Z,27.93